createdAt,value
2018-05-29T00:00:44.474Z,21.09
2018-05-29T00:01:44.480Z,21.09
2018-05-29T00:02:44.481Z,21.11
2018-05-29T00:03:44.485Z,21.06
2018-05-29T00:04:44.491Z,21.02
2018-05-29T00:05:44.496Z,20.99
2018-05-29T00:06:44.505Z,21.11
2018-05-29T00:07:44.501Z,21.07
2018-05-29T00:08:44.505Z,21.06
2018-05-29T00:09:44.509Z,21.02
2018-05-29T00:10:44.516Z,20.97
2018-05-29T00:11:44.518Z,20.97
2018-05-29T00:12:44.523Z,20.97
2018-05-29T00:13:44.528Z,20.88
2018-05-29T00:14:44.531Z,20.95
2018-05-29T00:15:44.534Z,20.93
2018-05-29T00:16:44.538Z,20.93
2018-05-29T00:17:44.545Z,20.97
2018-05-29T00:18:44.548Z,20.90
2018-05-29T00:19:44.550Z,20.92
2018-05-29T00:20:44.557Z,20.93
2018-05-29T00:21:44.560Z,20.92
2018-05-29T00:22:44.565Z,20.95
2018-05-29T00:23:44.567Z,20.90
2018-05-29T00:24:44.571Z,20.92
2018-05-29T00:25:44.575Z,20.85
2018-05-29T00:26:44.579Z,20.88
2018-05-29T00:27:44.581Z,20.82
2018-05-29T00:28:44.588Z,20.85
2018-05-29T00:29:44.592Z,20.84
2018-05-29T00:30:44.593Z,20.88
2018-05-29T00:31:44.598Z,20.80
2018-05-29T00:32:44.606Z,20.88
2018-05-29T00:33:44.606Z,20.81
2018-05-29T00:34:44.612Z,20.87
2018-05-29T00:35:44.613Z,20.85
2018-05-29T00:36:44.619Z,20.85
2018-05-29T00:37:44.630Z,20.82
2018-05-29T00:38:44.629Z,20.85
2018-05-29T00:39:44.630Z,20.88
2018-05-29T00:40:44.632Z,20.84
2018-05-29T00:41:44.638Z,20.84
2018-05-29T00:42:44.642Z,20.84
2018-05-29T00:43:44.655Z,20.88
2018-05-29T00:44:44.649Z,20.75
2018-05-29T00:45:44.653Z,20.75
2018-05-29T00:46:44.657Z,20.77
2018-05-29T00:47:44.663Z,20.65
2018-05-29T00:48:44.665Z,20.62
2018-05-29T00:49:44.669Z,20.62
2018-05-29T00:50:44.671Z,20.59
2018-05-29T00:51:44.677Z,20.56
2018-05-29T00:52:44.679Z,20.56
2018-05-29T00:53:44.692Z,20.51
2018-05-29T00:54:44.690Z,20.51
2018-05-29T00:55:44.690Z,20.48
2018-05-29T00:56:44.694Z,20.44
2018-05-29T00:57:44.699Z,20.44
2018-05-29T00:58:44.703Z,20.44
2018-05-29T00:59:44.706Z,20.44
2018-05-29T01:00:44.710Z,20.44
2018-05-29T01:01:44.714Z,20.47
2018-05-29T01:02:44.717Z,20.51
2018-05-29T01:03:44.726Z,20.44
2018-05-29T01:04:44.729Z,20.43
2018-05-29T01:05:44.738Z,20.41
2018-05-29T01:06:44.733Z,20.43
2018-05-29T01:07:44.736Z,20.43
2018-05-29T01:08:44.740Z,20.43
2018-05-29T01:09:44.743Z,20.43
2018-05-29T01:10:44.752Z,20.41
2018-05-29T01:11:44.751Z,20.41
2018-05-29T01:12:44.809Z,20.39
2018-05-29T01:13:44.757Z,20.37
2018-05-29T01:14:44.763Z,20.40
2018-05-29T01:15:44.765Z,20.28
2018-05-29T01:16:44.772Z,20.36
2018-05-29T01:17:44.775Z,20.41
2018-05-29T01:18:44.777Z,20.36
2018-05-29T01:19:44.782Z,20.31
2018-05-29T01:20:44.784Z,20.36
2018-05-29T01:21:44.787Z,20.31
2018-05-29T01:22:44.791Z,20.31
2018-05-29T01:23:44.799Z,20.37
2018-05-29T01:24:44.799Z,20.28
2018-05-29T01:25:44.802Z,20.19
2018-05-29T01:26:44.806Z,20.22
2018-05-29T01:27:44.809Z,20.22
2018-05-29T01:28:44.818Z,20.22
2018-05-29T01:29:44.816Z,20.18
2018-05-29T01:30:44.823Z,20.16
2018-05-29T01:31:44.825Z,20.07
2018-05-29T01:32:44.827Z,20.14
2018-05-29T01:33:44.832Z,20.22
2018-05-29T01:34:44.838Z,20.22
2018-05-29T01:35:44.845Z,20.13
2018-05-29T01:36:44.844Z,20.09
2018-05-29T01:37:44.848Z,20.14
2018-05-29T01:38:44.849Z,20.11
2018-05-29T01:39:44.853Z,20.06
2018-05-29T01:40:44.860Z,20.10
2018-05-29T01:41:44.861Z,20.09
2018-05-29T01:42:44.865Z,20.03
2018-05-29T01:43:44.866Z,20.04
2018-05-29T01:44:44.871Z,20.03
2018-05-29T01:45:44.876Z,20.06
2018-05-29T01:46:44.878Z,20.09
2018-05-29T01:47:44.881Z,20.02
2018-05-29T01:48:44.886Z,20.10
2018-05-29T01:49:44.891Z,20.02
2018-05-29T01:50:44.892Z,20.03
2018-05-29T01:51:44.896Z,20.07
2018-05-29T01:52:44.899Z,19.96
2018-05-29T01:53:44.904Z,20.07
2018-05-29T01:54:44.913Z,20.03
2018-05-29T01:55:44.910Z,19.99
2018-05-29T01:56:44.913Z,20.06
2018-05-29T01:57:44.917Z,20.10
2018-05-29T01:58:44.925Z,20.02
2018-05-29T01:59:44.924Z,20.06
2018-05-29T02:00:44.927Z,20.03
2018-05-29T02:01:44.933Z,20.03
2018-05-29T02:02:44.935Z,20.07
2018-05-29T02:03:44.936Z,20.06
2018-05-29T02:04:44.941Z,19.91
2018-05-29T02:05:44.944Z,20.00
2018-05-29T02:06:44.948Z,19.89
2018-05-29T02:07:44.950Z,20.02
2018-05-29T02:08:44.971Z,19.96
2018-05-29T02:09:44.962Z,19.92
2018-05-29T02:10:44.962Z,19.94
2018-05-29T02:11:44.966Z,20.00
2018-05-29T02:12:44.968Z,19.91
2018-05-29T02:13:44.973Z,19.92
2018-05-29T02:14:44.996Z,19.96
2018-05-29T02:15:44.978Z,19.86
2018-05-29T02:16:44.983Z,19.82
2018-05-29T02:17:44.991Z,19.86
2018-05-29T02:18:44.989Z,19.85
2018-05-29T02:19:44.993Z,19.85
2018-05-29T02:20:44.998Z,19.86
2018-05-29T02:21:45.044Z,19.81
2018-05-29T02:22:45.003Z,19.86
2018-05-29T02:23:45.006Z,19.84
2018-05-29T02:24:45.010Z,19.82
2018-05-29T02:25:45.014Z,19.89
2018-05-29T02:26:45.017Z,19.82
2018-05-29T02:27:45.021Z,19.81
2018-05-29T02:28:45.023Z,19.88
2018-05-29T02:29:45.027Z,19.86
2018-05-29T02:30:45.031Z,19.91
2018-05-29T02:31:45.039Z,19.89
2018-05-29T02:32:45.043Z,19.89
2018-05-29T02:33:45.042Z,19.95
2018-05-29T02:34:45.057Z,19.95
2018-05-29T02:35:45.048Z,19.86
2018-05-29T02:36:45.056Z,19.95
2018-05-29T02:37:45.059Z,19.92
2018-05-29T02:38:45.059Z,19.96
2018-05-29T02:39:45.061Z,19.96
2018-05-29T02:40:45.065Z,19.95
2018-05-29T02:41:45.071Z,19.94
2018-05-29T02:42:45.072Z,19.96
2018-05-29T02:43:45.074Z,20.03
2018-05-29T02:44:45.088Z,19.99
2018-05-29T02:45:45.127Z,19.94
2018-05-29T02:46:45.086Z,19.95
2018-05-29T02:47:45.092Z,19.92
2018-05-29T02:48:45.093Z,19.88
2018-05-29T02:49:45.100Z,19.79
2018-05-29T02:50:45.103Z,19.89
2018-05-29T02:51:45.105Z,19.82
2018-05-29T02:52:45.106Z,19.88
2018-05-29T02:53:45.113Z,19.91
2018-05-29T02:54:45.113Z,19.89
2018-05-29T02:55:45.115Z,19.82
2018-05-29T02:56:45.119Z,19.82
2018-05-29T02:57:45.125Z,19.81
2018-05-29T02:58:45.173Z,19.82
2018-05-29T02:59:45.131Z,19.82
2018-05-29T03:00:45.133Z,19.79
2018-05-29T03:01:45.137Z,19.86
2018-05-29T03:02:45.141Z,19.84
2018-05-29T03:03:45.143Z,19.82
2018-05-29T03:04:45.148Z,19.82
2018-05-29T03:05:45.149Z,19.84
2018-05-29T03:06:45.153Z,19.82
2018-05-29T03:07:45.156Z,19.84
2018-05-29T03:08:45.159Z,19.79
2018-05-29T03:09:45.164Z,19.82
2018-05-29T03:10:45.168Z,19.84
2018-05-29T03:11:45.173Z,19.82
2018-05-29T03:12:45.174Z,19.86
2018-05-29T03:13:45.177Z,19.79
2018-05-29T03:14:45.181Z,19.79
2018-05-29T03:15:45.184Z,19.79
2018-05-29T03:16:45.200Z,19.81
2018-05-29T03:17:45.191Z,19.84
2018-05-29T03:18:45.236Z,19.82
2018-05-29T03:19:45.218Z,19.82
2018-05-29T03:20:45.206Z,19.85
2018-05-29T03:21:45.205Z,19.81
2018-05-29T03:22:45.210Z,19.84
2018-05-29T03:23:45.210Z,19.84
2018-05-29T03:24:45.213Z,19.82
2018-05-29T03:25:45.216Z,19.82
2018-05-29T03:26:45.224Z,19.86
2018-05-29T03:27:45.223Z,19.82
2018-05-29T03:28:45.228Z,19.86
2018-05-29T03:29:45.234Z,19.82
2018-05-29T03:30:45.235Z,19.85
2018-05-29T03:31:45.237Z,19.79
2018-05-29T03:32:45.247Z,19.84
2018-05-29T03:33:45.244Z,19.82
2018-05-29T03:34:45.252Z,19.79
2018-05-29T03:35:45.251Z,19.94
2018-05-29T03:36:45.253Z,19.86
2018-05-29T03:37:45.260Z,19.91
2018-05-29T03:38:45.261Z,19.88
2018-05-29T03:39:45.265Z,19.88
2018-05-29T03:40:45.269Z,19.86
2018-05-29T03:41:45.272Z,19.89
2018-05-29T03:42:45.274Z,19.91
2018-05-29T03:43:45.279Z,19.94
2018-05-29T03:44:45.280Z,19.91
2018-05-29T03:45:45.283Z,19.95
2018-05-29T03:46:45.291Z,19.92
2018-05-29T03:47:45.290Z,20.03
2018-05-29T03:48:45.293Z,20.00
2018-05-29T03:49:45.297Z,19.99
2018-05-29T03:50:45.301Z,20.06
2018-05-29T03:51:45.304Z,19.99
2018-05-29T03:52:45.307Z,20.04
2018-05-29T03:53:45.317Z,19.99
2018-05-29T03:54:45.315Z,20.02
2018-05-29T03:55:45.317Z,19.99
2018-05-29T03:56:45.319Z,20.04
2018-05-29T03:57:45.323Z,20.06
2018-05-29T03:58:45.327Z,20.11
2018-05-29T03:59:45.331Z,20.02
2018-05-29T04:00:45.333Z,19.96
2018-05-29T04:01:45.337Z,20.07
2018-05-29T04:02:45.341Z,20.04
2018-05-29T04:03:45.344Z,20.02
2018-05-29T04:04:45.351Z,20.03
2018-05-29T04:05:45.358Z,20.04
2018-05-29T04:06:45.356Z,20.07
2018-05-29T04:07:45.357Z,20.03
2018-05-29T04:08:45.360Z,20.04
2018-05-29T04:09:45.365Z,20.06
2018-05-29T04:10:45.370Z,20.07
2018-05-29T04:11:45.371Z,20.07
2018-05-29T04:12:45.374Z,20.10
2018-05-29T04:13:45.377Z,20.09
2018-05-29T04:14:45.382Z,20.09
2018-05-29T04:15:45.394Z,20.09
2018-05-29T04:16:45.396Z,20.11
2018-05-29T04:17:45.394Z,20.11
2018-05-29T04:18:45.395Z,20.16
2018-05-29T04:19:45.398Z,20.14
2018-05-29T04:20:45.403Z,20.22
2018-05-29T04:21:45.407Z,20.19
2018-05-29T04:22:45.418Z,20.21
2018-05-29T04:23:45.416Z,20.24
2018-05-29T04:24:45.417Z,20.24
2018-05-29T04:25:45.420Z,20.22
2018-05-29T04:26:45.455Z,20.21
2018-05-29T04:27:45.425Z,20.21
2018-05-29T04:28:45.429Z,20.19
2018-05-29T04:29:45.434Z,20.29
2018-05-29T04:30:45.440Z,20.28
2018-05-29T04:31:45.440Z,20.31
2018-05-29T04:32:45.443Z,20.29
2018-05-29T04:33:45.446Z,20.44
2018-05-29T04:34:45.451Z,20.44
2018-05-29T04:35:45.455Z,20.47
2018-05-29T04:36:45.461Z,20.50
2018-05-29T04:37:45.462Z,20.50
2018-05-29T04:38:45.468Z,20.55
2018-05-29T04:39:45.468Z,20.63
2018-05-29T04:40:45.471Z,20.62
2018-05-29T04:41:45.481Z,20.74
2018-05-29T04:42:45.481Z,20.72
2018-05-29T04:43:45.497Z,20.75
2018-05-29T04:44:45.487Z,20.84
2018-05-29T04:45:45.490Z,20.95
2018-05-29T04:46:45.498Z,20.97
2018-05-29T04:47:45.504Z,21.03
2018-05-29T04:48:45.502Z,21.09
2018-05-29T04:49:45.533Z,21.11
2018-05-29T04:50:45.511Z,21.18
2018-05-29T04:51:45.513Z,21.17
2018-05-29T04:52:45.518Z,21.30
2018-05-29T04:53:45.521Z,21.30
2018-05-29T04:54:45.526Z,21.35
2018-05-29T04:55:45.531Z,21.45
2018-05-29T04:56:45.535Z,21.45
2018-05-29T04:57:45.543Z,21.54
2018-05-29T04:58:45.548Z,21.66
2018-05-29T04:59:45.546Z,21.64
2018-05-29T05:00:45.550Z,21.75
2018-05-29T05:01:45.554Z,21.76
2018-05-29T05:02:45.559Z,21.83
2018-05-29T05:03:45.679Z,21.83
2018-05-29T05:04:45.663Z,22.00
2018-05-29T05:05:47.137Z,22.08
2018-05-29T05:06:45.577Z,22.20
2018-05-29T05:07:45.611Z,22.28
2018-05-29T05:08:45.583Z,22.53
2018-05-29T05:09:45.588Z,22.72
2018-05-29T05:10:45.593Z,22.75
2018-05-29T05:11:45.596Z,22.99
2018-05-29T05:12:45.601Z,23.31
2018-05-29T05:13:45.623Z,23.50
2018-05-29T05:14:45.610Z,23.59
2018-05-29T05:15:45.614Z,24.05
2018-05-29T05:16:45.619Z,24.35
2018-05-29T05:17:45.624Z,24.48
2018-05-29T05:18:45.630Z,24.60
2018-05-29T05:19:45.634Z,24.95
2018-05-29T05:20:45.639Z,25.41
2018-05-29T05:21:45.644Z,25.59
2018-05-29T05:22:45.701Z,25.50
2018-05-29T05:23:45.677Z,25.41
2018-05-29T05:24:45.662Z,25.29
2018-05-29T05:25:45.667Z,25.26
2018-05-29T05:26:45.682Z,25.03
2018-05-29T05:27:45.674Z,25.04
2018-05-29T05:28:45.680Z,25.01
2018-05-29T05:29:45.688Z,25.07
2018-05-29T05:30:45.691Z,25.32
2018-05-29T05:31:45.696Z,25.43
2018-05-29T05:32:45.703Z,25.47
2018-05-29T05:33:45.709Z,25.41
2018-05-29T05:34:45.714Z,25.32
2018-05-29T05:35:45.722Z,25.23
2018-05-29T05:36:45.726Z,25.07
2018-05-29T05:37:45.732Z,24.91
2018-05-29T05:38:45.738Z,24.89
2018-05-29T05:39:45.744Z,24.78
2018-05-29T05:40:45.759Z,24.76
2018-05-29T05:41:45.755Z,24.61
2018-05-29T05:42:45.770Z,24.55
2018-05-29T05:43:45.767Z,24.58
2018-05-29T05:44:45.771Z,24.55
2018-05-29T05:45:45.777Z,24.47
2018-05-29T05:46:45.784Z,24.50
2018-05-29T05:47:45.789Z,24.54
2018-05-29T05:48:45.794Z,24.53
2018-05-29T05:49:45.801Z,24.68
2018-05-29T05:50:45.807Z,24.96
2018-05-29T05:51:45.812Z,25.21
2018-05-29T05:52:45.861Z,25.62
2018-05-29T05:53:45.823Z,26.00
2018-05-29T05:54:45.829Z,26.19
2018-05-29T05:55:45.881Z,26.15
2018-05-29T05:56:45.845Z,26.00
2018-05-29T05:57:45.847Z,25.95
2018-05-29T05:58:45.855Z,25.88
2018-05-29T05:59:45.858Z,25.72
2018-05-29T06:00:45.867Z,25.53
2018-05-29T06:01:45.871Z,25.47
2018-05-29T06:02:45.876Z,25.23
2018-05-29T06:03:45.883Z,25.22
2018-05-29T06:04:45.888Z,25.10
2018-05-29T06:05:45.894Z,25.04
2018-05-29T06:06:45.901Z,24.93
2018-05-29T06:07:45.906Z,24.84
2018-05-29T06:08:45.910Z,24.80
2018-05-29T06:09:45.918Z,24.69
2018-05-29T06:10:45.922Z,24.58
2018-05-29T06:11:45.929Z,24.51
2018-05-29T06:12:45.937Z,24.36
2018-05-29T06:13:45.942Z,24.33
2018-05-29T06:14:45.950Z,24.39
2018-05-29T06:15:45.952Z,24.39
2018-05-29T06:16:45.957Z,24.39
2018-05-29T06:17:45.963Z,24.33
2018-05-29T06:18:45.969Z,24.43
2018-05-29T06:19:45.982Z,24.45
2018-05-29T06:20:45.980Z,24.50
2018-05-29T06:21:45.987Z,24.58
2018-05-29T06:22:45.991Z,24.55
2018-05-29T06:23:45.998Z,24.60
2018-05-29T06:24:46.001Z,24.69
2018-05-29T06:25:46.008Z,24.70
2018-05-29T06:26:46.014Z,24.76
2018-05-29T06:27:46.132Z,24.77
2018-05-29T06:28:46.157Z,24.69
2018-05-29T06:29:46.134Z,24.65
2018-05-29T06:30:46.041Z,24.61
2018-05-29T06:31:46.042Z,24.60
2018-05-29T06:32:46.093Z,24.63
2018-05-29T06:33:46.062Z,24.54
2018-05-29T06:34:46.061Z,24.50
2018-05-29T06:35:46.064Z,24.38
2018-05-29T06:36:46.070Z,24.38
2018-05-29T06:37:46.081Z,24.48
2018-05-29T06:38:46.175Z,24.42
2018-05-29T06:39:46.192Z,24.39
2018-05-29T06:40:46.201Z,24.45
2018-05-29T06:41:46.099Z,24.45
2018-05-29T06:42:46.159Z,24.38
2018-05-29T06:43:46.109Z,24.36
2018-05-29T06:44:46.115Z,24.36
2018-05-29T06:45:46.120Z,24.29
2018-05-29T06:46:46.380Z,24.35
2018-05-29T06:47:46.131Z,24.29
2018-05-29T06:48:46.138Z,24.42
2018-05-29T06:49:46.142Z,24.42
2018-05-29T06:50:46.148Z,24.50
2018-05-29T06:51:46.161Z,24.39
2018-05-29T06:52:46.462Z,24.51
2018-05-29T06:53:46.165Z,24.42
2018-05-29T06:54:46.174Z,24.48
2018-05-29T06:55:46.177Z,24.45
2018-05-29T06:56:47.767Z,24.36
2018-05-29T06:57:46.214Z,24.36
2018-05-29T06:58:46.222Z,24.32
2018-05-29T06:59:46.202Z,24.30
2018-05-29T07:00:46.202Z,24.16
2018-05-29T07:01:46.207Z,24.18
2018-05-29T07:02:46.219Z,24.16
2018-05-29T07:03:46.218Z,24.18
2018-05-29T07:04:46.240Z,24.13
2018-05-29T07:05:46.230Z,24.20
2018-05-29T07:06:46.235Z,24.14
2018-05-29T07:07:46.239Z,24.18
2018-05-29T07:08:46.260Z,24.13
2018-05-29T07:09:46.253Z,24.18
2018-05-29T07:10:46.255Z,24.13
2018-05-29T07:11:46.266Z,24.26
2018-05-29T07:12:46.316Z,24.30
2018-05-29T07:13:46.750Z,24.29
2018-05-29T07:14:46.524Z,24.21
2018-05-29T07:15:46.386Z,24.32
2018-05-29T07:16:46.286Z,24.28
2018-05-29T07:17:46.353Z,24.26
2018-05-29T07:18:46.302Z,24.38
2018-05-29T07:19:46.304Z,24.42
2018-05-29T07:20:46.312Z,24.50
2018-05-29T07:21:46.313Z,24.32
2018-05-29T07:22:46.319Z,24.47
2018-05-29T07:23:46.326Z,24.48
2018-05-29T07:24:46.384Z,24.45
2018-05-29T07:25:46.332Z,24.57
2018-05-29T07:26:46.338Z,24.60
2018-05-29T07:27:46.344Z,24.60
2018-05-29T07:28:46.353Z,24.60
2018-05-29T07:29:46.356Z,24.65
2018-05-29T07:30:46.361Z,24.69
2018-05-29T07:31:46.369Z,24.65
2018-05-29T07:32:46.373Z,24.70
2018-05-29T07:33:46.658Z,24.78
2018-05-29T07:34:47.141Z,24.74
2018-05-29T07:35:46.387Z,24.73
2018-05-29T07:36:46.392Z,24.76
2018-05-29T07:37:46.398Z,24.74
2018-05-29T07:38:46.402Z,24.68
2018-05-29T07:39:46.412Z,24.69
2018-05-29T07:40:46.424Z,24.76
2018-05-29T07:41:46.419Z,24.74
2018-05-29T07:42:46.425Z,24.74
2018-05-29T07:43:46.441Z,24.77
2018-05-29T07:44:46.435Z,24.80
2018-05-29T07:45:46.440Z,24.80
2018-05-29T07:46:46.446Z,24.85
2018-05-29T07:47:47.183Z,24.77
2018-05-29T07:48:47.238Z,24.81
2018-05-29T07:49:46.466Z,24.85
2018-05-29T07:50:46.471Z,24.88
2018-05-29T07:51:46.473Z,24.91
2018-05-29T07:52:46.477Z,24.96
2018-05-29T07:53:46.495Z,25.03
2018-05-29T07:54:46.492Z,25.06
2018-05-29T07:55:46.685Z,25.06
2018-05-29T07:56:46.499Z,25.06
2018-05-29T07:57:46.507Z,25.04
2018-05-29T07:58:46.554Z,25.11
2018-05-29T07:59:46.517Z,25.07
2018-05-29T08:00:46.524Z,25.11
2018-05-29T08:01:46.969Z,25.11
2018-05-29T08:02:46.574Z,25.16
2018-05-29T08:03:46.538Z,25.14
2018-05-29T08:04:46.541Z,25.18
2018-05-29T08:05:46.551Z,25.29
2018-05-29T08:06:46.556Z,25.28
2018-05-29T08:07:46.577Z,25.32
2018-05-29T08:08:46.568Z,25.31
2018-05-29T08:09:46.817Z,25.31
2018-05-29T08:10:46.579Z,25.31
2018-05-29T08:11:46.582Z,25.31
2018-05-29T08:12:46.585Z,25.29
2018-05-29T08:13:46.592Z,25.33
2018-05-29T08:14:46.598Z,25.35
2018-05-29T08:15:46.601Z,25.35
2018-05-29T08:16:46.621Z,25.32
2018-05-29T08:17:46.614Z,25.43
2018-05-29T08:18:46.620Z,25.38
2018-05-29T08:19:46.626Z,25.41
2018-05-29T08:20:46.736Z,25.46
2018-05-29T08:21:46.635Z,25.46
2018-05-29T08:22:46.665Z,25.43
2018-05-29T08:23:46.646Z,25.47
2018-05-29T08:24:46.661Z,25.43
2018-05-29T08:25:46.659Z,25.46
2018-05-29T08:26:46.673Z,25.50
2018-05-29T08:27:46.733Z,25.62
2018-05-29T08:28:46.816Z,25.58
2018-05-29T08:29:46.681Z,25.62
2018-05-29T08:30:46.686Z,25.73
2018-05-29T08:31:46.694Z,25.80
2018-05-29T08:32:46.699Z,26.18
2018-05-29T08:33:46.702Z,26.93
2018-05-29T08:34:46.721Z,27.82
2018-05-29T08:35:46.715Z,28.69
2018-05-29T08:36:46.719Z,29.34
2018-05-29T08:37:46.727Z,30.10
2018-05-29T08:38:46.735Z,30.73
2018-05-29T08:39:46.938Z,31.17
2018-05-29T08:40:46.791Z,31.34
2018-05-29T08:41:46.753Z,31.43
2018-05-29T08:42:46.766Z,31.76
2018-05-29T08:43:46.765Z,32.15
2018-05-29T08:44:46.772Z,31.97
2018-05-29T08:45:46.794Z,32.41
2018-05-29T08:46:46.788Z,32.75
2018-05-29T08:47:46.796Z,32.95
2018-05-29T08:48:46.983Z,33.27
2018-05-29T08:49:46.816Z,33.49
2018-05-29T08:50:46.821Z,33.46
2018-05-29T08:51:46.869Z,33.53
2018-05-29T08:52:46.850Z,33.45
2018-05-29T08:53:46.847Z,33.50
2018-05-29T08:54:47.158Z,33.55
2018-05-29T08:55:46.864Z,33.74
2018-05-29T08:56:46.918Z,34.11
2018-05-29T08:57:47.087Z,34.14
2018-05-29T08:58:46.893Z,34.14
2018-05-29T08:59:46.901Z,33.94
2018-05-29T09:00:46.912Z,33.95
2018-05-29T09:01:46.921Z,34.17
2018-05-29T09:02:46.935Z,34.27
2018-05-29T09:03:46.942Z,34.40
2018-05-29T09:04:46.949Z,34.45
2018-05-29T09:05:47.675Z,34.80
2018-05-29T09:06:46.971Z,34.97
2018-05-29T09:07:47.675Z,35.37
2018-05-29T09:08:47.950Z,35.46
2018-05-29T09:09:47.183Z,35.02
2018-05-29T09:10:47.154Z,34.66
2018-05-29T09:11:47.050Z,34.21
2018-05-29T09:12:47.034Z,34.13
2018-05-29T09:13:47.047Z,34.13
2018-05-29T09:14:47.968Z,34.42
2018-05-29T09:15:47.068Z,34.43
2018-05-29T09:16:47.079Z,34.39
2018-05-29T09:17:47.089Z,34.67
2018-05-29T09:18:47.101Z,34.88
2018-05-29T09:19:47.109Z,34.57
2018-05-29T09:20:47.120Z,34.64
2018-05-29T09:21:47.131Z,35.02
2018-05-29T09:22:47.143Z,35.68
2018-05-29T09:23:47.160Z,35.95
2018-05-29T09:24:47.164Z,35.92
2018-05-29T09:25:47.180Z,35.82
2018-05-29T09:26:47.223Z,35.82
2018-05-29T09:27:47.200Z,35.67
2018-05-29T09:28:47.276Z,35.45
2018-05-29T09:29:47.315Z,35.66
2018-05-29T09:30:47.351Z,35.33
2018-05-29T09:31:47.253Z,35.36
2018-05-29T09:32:47.267Z,35.42
2018-05-29T09:33:47.279Z,36.00
2018-05-29T09:34:47.282Z,36.09
2018-05-29T09:35:47.297Z,36.39
2018-05-29T09:36:47.439Z,36.37
2018-05-29T09:37:47.446Z,35.78
2018-05-29T09:38:47.331Z,35.48
2018-05-29T09:39:47.343Z,35.58
2018-05-29T09:40:47.360Z,35.60
2018-05-29T09:41:47.434Z,35.44
2018-05-29T09:42:47.376Z,35.60
2018-05-29T09:43:47.387Z,35.80
2018-05-29T09:44:47.772Z,36.14
2018-05-29T09:45:47.480Z,36.17
2018-05-29T09:46:47.460Z,35.90
2018-05-29T09:47:47.452Z,35.86
2018-05-29T09:48:47.449Z,36.17
2018-05-29T09:49:47.463Z,36.36
2018-05-29T09:50:47.575Z,36.49
2018-05-29T09:51:47.503Z,36.64
2018-05-29T09:52:47.510Z,36.88
2018-05-29T09:53:47.514Z,37.06
2018-05-29T09:54:47.528Z,36.95
2018-05-29T09:55:47.538Z,37.18
2018-05-29T09:56:47.549Z,37.70
2018-05-29T09:57:47.562Z,37.87
2018-05-29T09:58:47.583Z,37.65
2018-05-29T09:59:47.588Z,37.53
2018-05-29T10:00:48.214Z,37.37
2018-05-29T10:01:47.617Z,37.33
2018-05-29T10:02:47.646Z,37.48
2018-05-29T10:03:47.662Z,37.94
2018-05-29T10:04:47.661Z,38.11
2018-05-29T10:05:47.665Z,38.14
2018-05-29T10:06:47.686Z,38.23
2018-05-29T10:07:48.086Z,38.45
2018-05-29T10:08:47.811Z,38.62
2018-05-29T10:09:47.724Z,38.76
2018-05-29T10:10:47.736Z,38.97
2018-05-29T10:11:47.749Z,39.22
2018-05-29T10:12:47.768Z,39.40
2018-05-29T10:13:47.785Z,39.81
2018-05-29T10:14:47.839Z,40.23
2018-05-29T10:15:47.823Z,40.46
2018-05-29T10:16:47.821Z,40.44
2018-05-29T10:17:47.838Z,40.21
2018-05-29T10:18:47.856Z,40.23
2018-05-29T10:19:47.867Z,40.20
2018-05-29T10:20:47.884Z,39.86
2018-05-29T10:21:47.898Z,39.36
2018-05-29T10:22:47.928Z,39.22
2018-05-29T10:23:47.926Z,39.46
2018-05-29T10:24:47.943Z,39.67
2018-05-29T10:25:47.967Z,39.70
2018-05-29T10:26:47.977Z,39.94
2018-05-29T10:27:47.992Z,39.94
2018-05-29T10:28:48.044Z,39.21
2018-05-29T10:29:48.020Z,38.55
2018-05-29T10:30:48.135Z,37.55
2018-05-29T10:31:48.069Z,37.74
2018-05-29T10:32:48.069Z,37.87
2018-05-29T10:33:48.094Z,37.87
2018-05-29T10:34:48.095Z,37.82
2018-05-29T10:35:48.114Z,37.87
2018-05-29T10:36:48.149Z,37.99
2018-05-29T10:37:48.287Z,38.14
2018-05-29T10:38:48.166Z,38.28
2018-05-29T10:39:48.168Z,37.97
2018-05-29T10:40:48.184Z,37.87
2018-05-29T10:41:48.197Z,37.96
2018-05-29T10:42:48.222Z,38.42
2018-05-29T10:43:48.227Z,38.97
2018-05-29T10:44:48.240Z,39.53
2018-05-29T10:45:48.276Z,40.05
2018-05-29T10:46:48.551Z,40.49
2018-05-29T10:47:48.364Z,40.85
2018-05-29T10:48:48.454Z,40.43
2018-05-29T10:49:48.316Z,39.87
2018-05-29T10:50:48.331Z,39.68
2018-05-29T10:51:48.347Z,39.58
2018-05-29T10:52:48.365Z,39.31
2018-05-29T10:53:48.397Z,38.67
2018-05-29T10:54:48.392Z,37.86
2018-05-29T10:55:48.409Z,37.29
2018-05-29T10:56:48.422Z,36.73
2018-05-29T10:57:48.437Z,36.21
2018-05-29T10:58:48.451Z,36.43
2018-05-29T10:59:48.465Z,35.79
2018-05-29T11:00:48.486Z,35.89
2018-05-29T11:01:48.495Z,36.40
2018-05-29T11:02:48.509Z,37.02
2018-05-29T11:03:48.523Z,37.36
2018-05-29T11:04:48.534Z,37.93
2018-05-29T11:05:48.699Z,38.60
2018-05-29T11:06:48.587Z,38.95
2018-05-29T11:07:48.579Z,39.06
2018-05-29T11:08:48.593Z,39.26
2018-05-29T11:09:48.682Z,39.68
2018-05-29T11:10:48.624Z,39.99
2018-05-29T11:11:48.746Z,40.38
2018-05-29T11:12:48.679Z,41.02
2018-05-29T11:13:48.692Z,41.37
2018-05-29T11:14:48.680Z,41.34
2018-05-29T11:15:48.693Z,40.54
2018-05-29T11:16:48.708Z,39.90
2018-05-29T11:17:48.733Z,39.63
2018-05-29T11:18:48.740Z,39.31
2018-05-29T11:19:48.899Z,39.52
2018-05-29T11:20:48.775Z,39.68
2018-05-29T11:21:48.791Z,39.78
2018-05-29T11:22:48.832Z,40.09
2018-05-29T11:23:48.819Z,40.20
2018-05-29T11:24:48.836Z,40.35
2018-05-29T11:25:48.853Z,40.87
2018-05-29T11:26:48.872Z,41.31
2018-05-29T11:27:48.886Z,41.45
2018-05-29T11:28:49.752Z,41.49
2018-05-29T11:29:48.919Z,41.75
2018-05-29T11:30:48.935Z,41.88
2018-05-29T11:31:48.973Z,41.91
2018-05-29T11:32:49.181Z,41.62
2018-05-29T11:33:48.990Z,41.68
2018-05-29T11:34:49.001Z,41.71
2018-05-29T11:35:49.103Z,41.85
2018-05-29T11:36:49.136Z,42.31
2018-05-29T11:37:49.064Z,42.65
2018-05-29T11:38:49.324Z,42.94
2018-05-29T11:39:49.199Z,43.28
2018-05-29T11:40:49.106Z,43.76
2018-05-29T11:41:49.124Z,43.86
2018-05-29T11:42:49.140Z,43.23
2018-05-29T11:43:49.183Z,42.88
2018-05-29T11:44:49.179Z,42.53
2018-05-29T11:45:49.206Z,42.33
2018-05-29T11:46:49.215Z,41.87
2018-05-29T11:47:49.260Z,42.07
2018-05-29T11:48:49.279Z,42.09
2018-05-29T11:49:49.272Z,42.28
2018-05-29T11:50:49.301Z,42.29
2018-05-29T11:51:49.303Z,42.51
2018-05-29T11:52:49.332Z,42.92
2018-05-29T11:53:50.796Z,43.42
2018-05-29T11:54:50.985Z,43.48
2018-05-29T11:55:50.264Z,43.79
2018-05-29T11:56:49.398Z,43.72
2018-05-29T11:57:49.421Z,43.84
2018-05-29T11:58:49.459Z,43.89
2018-05-29T11:59:49.450Z,43.92
2018-05-29T12:00:49.474Z,43.86
2018-05-29T12:01:49.549Z,43.58
2018-05-29T12:02:49.507Z,43.62
2018-05-29T12:03:49.526Z,43.61
2018-05-29T12:04:49.617Z,42.99
2018-05-29T12:05:49.584Z,42.21
2018-05-29T12:06:49.584Z,41.95
2018-05-29T12:07:49.600Z,41.59
2018-05-29T12:08:49.624Z,41.59
2018-05-29T12:09:49.637Z,41.57
2018-05-29T12:10:49.677Z,40.78
2018-05-29T12:11:49.684Z,40.14
2018-05-29T12:12:49.726Z,40.30
2018-05-29T12:13:49.712Z,39.52
2018-05-29T12:14:49.904Z,38.50
2018-05-29T12:15:49.768Z,38.14
2018-05-29T12:16:49.759Z,37.97
2018-05-29T12:17:49.779Z,38.23
2018-05-29T12:18:49.790Z,38.96
2018-05-29T12:19:49.805Z,39.49
2018-05-29T12:20:50.061Z,39.56
2018-05-29T12:21:49.835Z,39.71
2018-05-29T12:22:49.850Z,40.18
2018-05-29T12:23:49.864Z,40.63
2018-05-29T12:24:50.024Z,41.02
2018-05-29T12:25:49.894Z,41.45
2018-05-29T12:26:49.911Z,41.47
2018-05-29T12:27:49.927Z,41.12
2018-05-29T12:28:49.942Z,41.06
2018-05-29T12:29:49.968Z,40.49
2018-05-29T12:30:49.974Z,40.77
2018-05-29T12:31:49.989Z,41.15
2018-05-29T12:32:50.469Z,41.12
2018-05-29T12:33:50.024Z,41.31
2018-05-29T12:34:50.035Z,41.26
2018-05-29T12:35:50.070Z,41.47
2018-05-29T12:36:50.065Z,41.49
2018-05-29T12:37:50.137Z,40.77
2018-05-29T12:38:50.786Z,40.24
2018-05-29T12:39:50.112Z,40.20
2018-05-29T12:40:50.133Z,40.21
2018-05-29T12:41:50.570Z,39.68
2018-05-29T12:42:50.227Z,39.06
2018-05-29T12:43:50.221Z,38.43
2018-05-29T12:44:50.190Z,38.12
2018-05-29T12:45:50.203Z,38.19
2018-05-29T12:46:50.443Z,38.26
2018-05-29T12:47:50.319Z,38.39
2018-05-29T12:48:50.258Z,38.17
2018-05-29T12:49:50.292Z,37.70
2018-05-29T12:50:50.274Z,37.71
2018-05-29T12:51:50.291Z,37.39
2018-05-29T12:52:50.299Z,37.17